createdAt,value
2018-07-17T00:00:03.333Z,76.10
2018-07-17T00:04:59.547Z,75.10
2018-07-17T00:10:02.897Z,76.70
2018-07-17T00:15:07.433Z,76.10
2018-07-17T00:20:06.932Z,76.40
2018-07-17T00:25:02.475Z,77.40
2018-07-17T00:29:59.982Z,77.40
2018-07-17T00:34:56.381Z,78.40
2018-07-17T00:40:00.859Z,78.20
2018-07-17T00:45:05.909Z,78.20
2018-07-17T00:50:10.979Z,77.50
2018-07-17T00:55:07.077Z,78.50
2018-07-17T01:00:03.967Z,78.00
2018-07-17T01:05:05.770Z,79.00
2018-07-17T01:10:07.045Z,79.60
2018-07-17T01:20:04.193Z,79.80
2018-07-17T01:25:00.433Z,79.70
2018-07-17T01:29:56.048Z,80.40
2018-07-17T01:34:59.885Z,81.30
2018-07-17T01:40:03.268Z,81.50
2018-07-17T01:45:07.532Z,82.20
2018-07-17T01:50:11.590Z,82.50
2018-07-17T01:55:07.286Z,82.80
2018-07-17T02:00:03.549Z,83.10
2018-07-17T02:09:54.615Z,84.00
2018-07-17T02:14:50.225Z,84.40
2018-07-17T02:19:53.944Z,83.70
2018-07-17T02:29:44.812Z,84.50
2018-07-17T02:34:40.993Z,85.00
2018-07-17T02:39:36.809Z,85.20
2018-07-17T02:44:39.983Z,85.50
2018-07-17T02:49:43.602Z,85.60
2018-07-17T02:54:51.940Z,86.00
2018-07-17T02:59:55.341Z,86.00
2018-07-17T03:04:51.433Z,85.60
2018-07-17T03:09:47.381Z,85.40
2018-07-17T03:14:43.453Z,84.60
2018-07-17T03:19:39.782Z,84.30
2018-07-17T03:24:43.599Z,83.60
2018-07-17T03:29:39.494Z,83.40
2018-07-17T03:34:34.954Z,83.00
2018-07-17T03:39:31.772Z,82.60
2018-07-17T03:44:31.663Z,82.60
2018-07-17T03:49:27.287Z,82.40
2018-07-17T03:54:30.629Z,81.70
2018-07-17T03:59:49.402Z,80.80
2018-07-17T04:05:08.593Z,80.80
2018-07-17T04:10:04.541Z,80.10
2018-07-17T04:15:08.267Z,80.20
2018-07-17T04:20:11.186Z,80.10
2018-07-17T04:25:07.512Z,78.50
2018-07-17T04:30:03.501Z,78.10
2018-07-17T04:40:01.861Z,78.40
2018-07-17T04:45:06.095Z,78.00
2018-07-17T04:50:09.720Z,77.70
2018-07-17T04:55:07.297Z,77.20
2018-07-17T05:00:05.125Z,75.60
2018-07-17T05:09:55.743Z,72.40
2018-07-17T05:14:58.619Z,72.00
2018-07-17T05:20:02.353Z,71.10
2018-07-17T05:25:01.188Z,69.00
2018-07-17T05:29:57.859Z,66.10
2018-07-17T05:34:57.406Z,64.30
2018-07-17T05:39:53.746Z,60.00
2018-07-17T05:44:58.208Z,57.90
2018-07-17T05:49:55.332Z,56.30
2018-07-17T05:54:51.183Z,56.10
2018-07-17T05:59:46.948Z,55.10
2018-07-17T06:04:44.071Z,52.80
2018-07-17T06:09:47.676Z,48.70
2018-07-17T06:14:53.053Z,43.50
2018-07-17T06:19:56.610Z,42.20
2018-07-17T06:24:52.464Z,41.80
2018-07-17T06:29:48.352Z,40.80
2018-07-17T06:34:44.160Z,36.80
2018-07-17T06:44:47.374Z,31.50
2018-07-17T06:54:46.664Z,37.10
2018-07-17T06:59:44.128Z,38.80
2018-07-17T07:09:35.007Z,40.80
2018-07-17T07:14:30.482Z,40.30
2018-07-17T07:19:28.996Z,40.80
2018-07-17T07:24:24.714Z,39.50
2018-07-17T07:29:29.734Z,37.90
2018-07-17T07:34:35.998Z,38.00
2018-07-17T07:39:39.537Z,38.10
2018-07-17T07:44:44.386Z,39.00
2018-07-17T07:49:41.434Z,38.90
2018-07-17T07:54:37.977Z,38.90
2018-07-17T07:59:34.039Z,37.30
2018-07-17T08:04:30.696Z,36.70
2018-07-17T08:09:50.187Z,34.40
2018-07-17T08:15:10.395Z,32.20
2018-07-17T08:20:07.114Z,32.70
2018-07-17T08:25:08.249Z,33.10
2018-07-17T08:30:05.560Z,32.30
2018-07-17T08:35:09.208Z,32.90
2018-07-17T08:40:06.642Z,32.80
2018-07-17T08:45:03.156Z,30.00
2018-07-17T08:49:59.730Z,28.80
2018-07-17T08:54:56.873Z,28.70
2018-07-17T09:00:03.743Z,27.40
2018-07-17T09:05:07.152Z,25.50
2018-07-17T09:10:07.501Z,24.90
2018-07-17T09:15:11.715Z,26.50
2018-07-17T09:20:09.887Z,26.40
2018-07-17T09:25:11.400Z,27.50
2018-07-17T09:30:11.499Z,26.80
2018-07-17T09:35:08.724Z,26.30
2018-07-17T09:40:05.475Z,24.10
2018-07-17T09:45:01.653Z,22.40
2018-07-17T09:50:07.333Z,21.60
2018-07-17T10:00:04.037Z,20.90
2018-07-17T10:05:00.657Z,21.10
2018-07-17T10:09:57.128Z,23.10
2018-07-17T10:14:53.544Z,25.50
2018-07-17T10:25:05.785Z,23.80
2018-07-17T10:30:01.770Z,24.80
2018-07-17T10:35:10.024Z,25.50
2018-07-17T10:40:08.073Z,24.70
2018-07-17T10:45:09.534Z,22.50
2018-07-17T10:50:07.647Z,24.10
2018-07-17T10:55:05.553Z,22.50
2018-07-17T11:00:03.901Z,22.10
2018-07-17T11:05:08.485Z,24.20
2018-07-17T11:10:08.692Z,25.40
2018-07-17T11:15:06.542Z,26.50
2018-07-17T11:20:03.266Z,28.90
2018-07-17T11:24:59.460Z,30.20
2018-07-17T11:30:11.369Z,30.30
2018-07-17T11:35:08.235Z,29.50
2018-07-17T11:40:06.288Z,29.40
2018-07-17T11:45:02.214Z,29.60
2018-07-17T11:50:07.795Z,30.50
2018-07-17T11:55:06.977Z,30.90
2018-07-17T12:00:04.962Z,31.50
2018-07-17T12:05:02.172Z,31.60
2018-07-17T12:09:59.571Z,31.30
2018-07-17T12:15:04.446Z,31.90
2018-07-17T12:20:00.323Z,30.80
2018-07-17T12:24:56.154Z,30.40
2018-07-17T12:29:51.814Z,31.90
2018-07-17T12:35:10.150Z,29.90
2018-07-17T12:40:07.301Z,29.70
2018-07-17T12:45:02.955Z,31.00
2018-07-17T12:49:59.359Z,29.70
2018-07-17T12:54:55.915Z,30.00
2018-07-17T12:59:58.941Z,30.80
2018-07-17T13:04:54.867Z,29.90
2018-07-17T13:09:51.015Z,29.60
2018-07-17T13:14:46.878Z,30.60
2018-07-17T13:19:42.748Z,30.50
2018-07-17T13:24:45.601Z,29.90
2018-07-17T13:29:49.216Z,30.70
2018-07-17T13:34:52.631Z,30.00
2018-07-17T13:40:11.750Z,31.30
2018-07-17T13:45:08.011Z,29.20
2018-07-17T13:50:04.665Z,30.00
2018-07-17T13:55:00.339Z,30.20
2018-07-17T14:00:04.381Z,29.90
2018-07-17T14:05:08.295Z,30.30
2018-07-17T14:10:09.594Z,30.00
2018-07-17T14:15:05.920Z,30.30
2018-07-17T14:20:01.827Z,30.60
2018-07-17T14:24:57.507Z,30.20
2018-07-17T14:30:01.202Z,29.90
2018-07-17T14:35:05.740Z,30.10
2018-07-17T14:45:03.877Z,30.40
2018-07-17T14:50:01.164Z,30.30
2018-07-17T14:54:57.995Z,30.20
2018-07-17T15:00:01.780Z,30.00
2018-07-17T15:05:06.039Z,30.80
2018-07-17T15:10:09.256Z,30.00
2018-07-17T15:15:06.130Z,32.20
2018-07-17T15:20:01.812Z,30.80
2018-07-17T15:24:58.394Z,31.50
2018-07-17T15:29:54.001Z,30.90
2018-07-17T15:34:57.441Z,30.90
2018-07-17T15:40:00.964Z,31.20
2018-07-17T15:45:06.828Z,31.60
2018-07-17T15:50:02.628Z,31.60
2018-07-17T15:54:58.260Z,30.80
2018-07-17T15:59:53.925Z,30.90
2018-07-17T16:04:56.826Z,31.40
2018-07-17T16:10:00.424Z,31.20
2018-07-17T16:15:03.759Z,31.20
2018-07-17T16:20:07.173Z,31.60
2018-07-17T16:25:06.591Z,32.00
2018-07-17T16:30:02.425Z,31.60
2018-07-17T16:34:58.086Z,31.60
2018-07-17T16:39:53.817Z,32.50
2018-07-17T16:44:58.669Z,32.80
2018-07-17T16:50:10.882Z,32.20
2018-07-17T16:55:07.323Z,32.50
2018-07-17T17:00:03.548Z,32.20
2018-07-17T17:04:59.191Z,32.20
2018-07-17T17:10:03.007Z,32.00
2018-07-17T17:15:01.928Z,32.40
2018-07-17T17:19:58.463Z,32.80
2018-07-17T17:24:54.746Z,33.30
2018-07-17T17:29:50.335Z,33.60
2018-07-17T17:34:53.346Z,34.50
2018-07-17T17:39:56.752Z,33.60
2018-07-17T17:44:52.774Z,34.00
2018-07-17T17:49:48.654Z,35.00
2018-07-17T17:54:44.697Z,34.20
2018-07-17T17:59:40.322Z,34.90
2018-07-17T18:04:36.263Z,35.60
2018-07-17T18:09:32.115Z,35.10
2018-07-17T18:14:28.079Z,35.40
2018-07-17T18:19:23.551Z,35.70
2018-07-17T18:24:27.073Z,36.40
2018-07-17T18:29:23.006Z,36.60
2018-07-17T18:34:18.361Z,37.40
2018-07-17T18:39:13.861Z,38.60
2018-07-17T18:44:09.017Z,39.10
2018-07-17T18:49:05.296Z,41.40
2018-07-17T18:54:00.610Z,42.40
2018-07-17T18:58:55.948Z,43.70
2018-07-17T19:03:52.140Z,44.70
2018-07-17T19:08:55.722Z,45.70
2018-07-17T19:13:58.307Z,46.40
2018-07-17T19:18:53.467Z,47.40
2018-07-17T19:34:07.356Z,50.00
2018-07-17T19:39:03.513Z,50.90
2018-07-17T19:43:59.529Z,52.40
2018-07-17T19:48:54.623Z,52.40
2018-07-17T19:58:44.132Z,53.50
2018-07-17T20:03:39.348Z,53.70
2018-07-17T20:08:35.148Z,54.50
2018-07-17T20:13:30.769Z,55.60
2018-07-17T20:18:26.067Z,56.70
2018-07-17T20:23:21.315Z,57.20
2018-07-17T20:28:16.332Z,58.10
2018-07-17T20:33:11.355Z,58.50
2018-07-17T20:38:08.744Z,58.80
2018-07-17T20:47:59.476Z,60.50
2018-07-17T20:58:28.462Z,61.40
2018-07-17T21:03:23.140Z,62.60
2018-07-17T21:08:18.690Z,62.80
2018-07-17T21:13:15.123Z,63.50
2018-07-17T21:18:18.533Z,64.20
2018-07-17T21:23:13.645Z,64.50
2018-07-17T21:28:14.552Z,64.80
2018-07-17T21:33:10.164Z,65.90
2018-07-17T21:38:05.787Z,66.80
2018-07-17T21:43:02.712Z,67.80
2018-07-17T21:52:53.048Z,68.70
2018-07-17T21:57:49.518Z,68.00
2018-07-17T22:02:44.741Z,68.90
2018-07-17T22:07:40.477Z,69.10
2018-07-17T22:12:35.521Z,69.40
2018-07-17T22:17:30.401Z,69.40
2018-07-17T22:22:25.247Z,69.60
2018-07-17T22:27:21.084Z,70.50
2018-07-17T22:32:16.567Z,70.80
2018-07-17T22:37:18.983Z,71.50
2018-07-17T22:42:13.846Z,71.70
2018-07-17T22:47:10.080Z,72.50
2018-07-17T22:52:06.903Z,72.70
2018-07-17T22:57:01.895Z,73.10
2018-07-17T23:01:57.680Z,73.40
2018-07-17T23:11:47.009Z,73.80
2018-07-17T23:16:41.731Z,74.50
2018-07-17T23:21:37.376Z,75.00
2018-07-17T23:26:32.119Z,75.20
2018-07-17T23:31:26.864Z,76.10
2018-07-17T23:36:22.562Z,75.80
2018-07-17T23:41:17.741Z,75.70
2018-07-17T23:46:13.993Z,76.10
2018-07-17T23:51:09.448Z,76.10
2018-07-17T23:56:06.114Z,76.50
